Time;durP1;ratioP1;P1;durP2;ratioP2;P2;SDS_P1;SDS_P2;PMS_P1;PMS_P2;Temp;Humidity;BMP_temperature;BMP_pressure;BME280_temperature;BME280_humidity;BME280_pressure;Samples;Min_cycle;Max_cycle;Signal;HPM_P1;HPM_P2
2024/02/19 00:01:27;;;;;;;;;;;;;;;21.02;27.40;99043.41;4937264;29;958;-82
2024/02/19 00:03:52;;;;;;;;;;;;;;;21.12;27.52;99041.72;4951365;29;1972;-82
2024/02/19 00:06:18;;;;;;;;;;;;;;;21.12;27.35;99042.53;4938317;29;919;-81
2024/02/19 00:08:43;;;;;;;;;;;;;;;21.20;27.22;99044.09;4969964;29;969;-82
2024/02/19 00:11:09;;;;;;;;;;;;;;;20.88;27.56;99023.72;4957155;29;964;-82
2024/02/19 00:13:36;;;;;;;;;;;;;;;20.05;28.61;99003.56;4971387;29;920;-81
2024/02/19 00:16:01;;;;;;;;;;;;;;;20.75;27.88;99035.53;4956896;29;980;-81
2024/02/19 00:18:27;;;;;;;;;;;;;;;21.11;27.42;99029.59;4970221;29;932;-82
2024/02/19 00:20:53;;;;;;;;;;;;;;;21.13;27.39;99032.81;4972932;28;919;-82
2024/02/19 00:23:18;;;;;;;;;;;;;;;21.04;27.59;99030.47;4970083;28;1985;-82
2024/02/19 00:25:44;;;;;;;;;;;;;;;21.03;27.36;99033.69;4998003;28;1240;-81
2024/02/19 00:28:10;;;;;;;;;;;;;;;21.07;27.47;99023.97;5011184;28;1207;-82
2024/02/19 00:30:36;;;;;;;;;;;;;;;21.10;27.53;99028.00;5013255;28;926;-82
2024/02/19 00:33:02;;;;;;;;;;;;;;;21.14;27.21;99031.59;5011276;28;970;-81
2024/02/19 00:35:27;;;;;;;;;;;;;;;21.28;26.93;99025.00;4995486;28;1249;-82
2024/02/19 00:37:53;;;;;;;;;;;;;;;21.09;27.41;99029.22;5012292;28;1080;-82
2024/02/19 00:40:19;;;;;;;;;;;;;;;21.12;27.28;99025.53;5009923;28;1128;-81
2024/02/19 00:42:44;;;;;;;;;;;;;;;20.55;27.75;99023.13;5009673;28;963;-82
2024/02/19 00:45:11;;;;;;;;;;;;;;;20.46;27.87;99028.41;4976930;28;1910;-81
2024/02/19 00:47:36;;;;;;;;;;;;;;;20.99;27.65;99015.97;5010275;28;985;-82
2024/02/19 00:50:03;;;;;;;;;;;;;;;21.12;27.45;99016.25;4992528;28;905;-82
2024/02/19 00:52:29;;;;;;;;;;;;;;;21.11;27.40;99011.81;4994981;28;914;-82
2024/02/19 00:54:57;;;;;;;;;;;;;;;20.92;27.89;99010.34;5009160;28;916;-81
2024/02/19 00:57:23;;;;;;;;;;;;;;;21.13;27.32;99007.34;4994823;28;939;-82
2024/02/19 00:59:48;;;;;;;;;;;;;;;21.29;27.06;99001.94;4993025;28;997;-81
2024/02/19 01:02:14;;;;;;;;;;;;;;;21.19;27.27;99005.69;5010717;28;917;-81
2024/02/19 01:04:40;;;;;;;;;;;;;;;21.21;27.04;99006.06;5008780;28;1948;-82
2024/02/19 01:07:05;;;;;;;;;;;;;;;20.95;27.24;99001.03;4993907;28;1030;-81
2024/02/19 01:09:31;;;;;;;;;;;;;;;20.63;27.85;98992.81;5008457;28;921;-81
2024/02/19 01:11:56;;;;;;;;;;;;;;;20.71;27.51;98997.97;4993442;28;966;-81
2024/02/19 01:14:22;;;;;;;;;;;;;;;20.98;27.40;98997.34;4992527;28;1092;-81
2024/02/19 01:16:48;;;;;;;;;;;;;;;20.94;27.65;98988.13;5009693;28;920;-82
2024/02/19 01:19:14;;;;;;;;;;;;;;;21.17;27.03;98993.97;5009974;28;985;-82
2024/02/19 01:21:40;;;;;;;;;;;;;;;21.10;27.08;98977.06;5010710;28;885;-81
2024/02/19 01:24:06;;;;;;;;;;;;;;;21.20;27.17;98981.81;5009225;28;1914;-82
2024/02/19 01:26:31;;;;;;;;;;;;;;;21.33;26.90;98980.09;5011372;28;894;-82
2024/02/19 01:28:57;;;;;;;;;;;;;;;21.41;26.55;98968.72;5009323;28;1073;-82
2024/02/19 01:31:23;;;;;;;;;;;;;;;21.11;27.09;98975.84;5011424;28;1002;-82
2024/02/19 01:33:48;;;;;;;;;;;;;;;20.88;27.56;98981.28;5009362;28;891;-81
2024/02/19 01:36:14;;;;;;;;;;;;;;;21.10;27.30;98981.91;5010174;28;954;-82
2024/02/19 01:38:41;;;;;;;;;;;;;;;21.17;27.14;98976.97;5008841;28;937;-82
2024/02/19 01:41:07;;;;;;;;;;;;;;;20.99;27.39;98982.00;5011531;28;976;-81
2024/02/19 01:43:32;;;;;;;;;;;;;;;21.07;27.02;98977.88;5009503;28;1984;-82
2024/02/19 01:46:03;;;;;;;;;;;;;;;21.02;27.23;98965.00;5010621;28;930;-81
2024/02/19 01:48:28;;;;;;;;;;;;;;;21.08;27.29;98973.81;4992273;28;904;-82
2024/02/19 01:50:54;;;;;;;;;;;;;;;21.17;27.00;98965.66;5011738;28;957;-81
2024/02/19 01:53:19;;;;;;;;;;;;;;;21.30;26.78;98958.28;4992830;28;848;-81
2024/02/19 01:55:45;;;;;;;;;;;;;;;21.22;27.04;98970.88;4993414;28;903;-81
2024/02/19 01:58:11;;;;;;;;;;;;;;;20.90;27.16;98968.34;4991872;28;1041;-82
2024/02/19 02:00:44;;;;;;;;;;;;;;;20.81;27.20;98971.63;4963330;28;1128;-82
2024/02/19 02:03:10;;;;;;;;;;;;;;;20.77;27.58;98970.84;4991605;28;1979;-82
2024/02/19 02:05:36;;;;;;;;;;;;;;;21.08;27.15;98979.47;4994121;28;901;-81
2024/02/19 02:08:05;;;;;;;;;;;;;;;20.96;27.35;98968.69;4992081;28;954;-81
2024/02/19 02:10:30;;;;;;;;;;;;;;;21.10;27.34;98965.75;4993117;28;928;-81
2024/02/19 02:12:56;;;;;;;;;;;;;;;21.39;26.49;98968.31;4992154;28;1242;-81
2024/02/19 02:15:22;;;;;;;;;;;;;;;21.26;26.97;98974.47;4992748;28;873;-82
2024/02/19 02:17:47;;;;;;;;;;;;;;;20.48;27.56;98964.63;4976112;28;1217;-82
2024/02/19 02:20:13;;;;;;;;;;;;;;;20.46;27.78;98977.50;4992433;28;965;-82
2024/02/19 02:22:40;;;;;;;;;;;;;;;21.02;27.38;98975.50;5008741;28;983;-81
2024/02/19 02:25:05;;;;;;;;;;;;;;;21.07;27.30;98980.72;5008077;28;1891;-81
2024/02/19 02:27:31;;;;;;;;;;;;;;;21.11;27.07;98978.66;4969703;28;1265;-81
2024/02/19 02:29:56;;;;;;;;;;;;;;;21.02;26.98;98986.81;4948558;29;1064;-82
2024/02/19 02:32:22;;;;;;;;;;;;;;;21.19;26.89;98983.03;4951133;29;1177;-82
2024/02/19 02:34:48;;;;;;;;;;;;;;;21.32;26.68;98972.81;4949430;29;1113;-82
2024/02/19 02:37:13;;;;;;;;;;;;;;;21.19;26.97;98980.22;4951624;29;1228;-82
2024/02/19 02:39:42;;;;;;;;;;;;;;;20.67;27.20;98974.56;4902132;29;1272;-82
2024/02/19 02:42:07;;;;;;;;;;;;;;;20.52;27.54;98975.88;4935400;29;958;-81
2024/02/19 02:44:33;;;;;;;;;;;;;;;20.92;27.42;98977.19;4932772;29;1907;-82
2024/02/19 02:46:59;;;;;;;;;;;;;;;20.85;27.51;98982.94;4919410;29;1194;-81
2024/02/19 02:49:25;;;;;;;;;;;;;;;20.91;27.49;98980.44;4917750;29;1117;-81
2024/02/19 02:51:50;;;;;;;;;;;;;;;21.11;26.99;98989.97;4951565;29;965;-81
2024/02/19 02:54:16;;;;;;;;;;;;;;;21.08;26.88;98985.16;4933573;29;926;-81
2024/02/19 02:56:42;;;;;;;;;;;;;;;20.99;27.06;98987.66;4934693;29;960;-82
2024/02/19 02:59:08;;;;;;;;;;;;;;;20.98;27.08;98981.19;4933786;29;994;-82
2024/02/19 03:01:33;;;;;;;;;;;;;;;21.02;27.30;98981.97;4980586;28;1260;-81
2024/02/19 03:03:59;;;;;;;;;;;;;;;21.11;27.01;98980.69;4974350;28;1954;-80
2024/02/19 03:06:25;;;;;;;;;;;;;;;20.85;27.35;98984.97;4977097;28;1239;-81
2024/02/19 03:08:51;;;;;;;;;;;;;;;20.33;27.69;98982.06;4976348;28;1642;-81
2024/02/19 03:11:16;;;;;;;;;;;;;;;21.12;26.92;98985.91;5009740;28;909;-82
2024/02/19 03:13:42;;;;;;;;;;;;;;;20.99;27.02;98976.34;5007150;28;873;-82
2024/02/19 03:16:08;;;;;;;;;;;;;;;21.06;26.84;98973.44;5008405;28;1132;-79
2024/02/19 03:18:36;;;;;;;;;;;;;;;20.98;27.17;98980.38;4989532;28;1124;-81
2024/02/19 03:21:07;;;;;;;;;;;;;;;21.04;27.01;98978.75;4992150;28;1013;-82
2024/02/19 03:23:33;;;;;;;;;;;;;;;20.98;27.10;98969.06;5005829;28;1975;-82
2024/02/19 03:25:58;;;;;;;;;;;;;;;21.12;27.04;98968.94;4993027;28;870;-82
2024/02/19 03:28:24;;;;;;;;;;;;;;;20.85;27.15;98970.81;4966991;28;1329;-82
2024/02/19 03:30:49;;;;;;;;;;;;;;;20.67;27.30;98966.06;4969926;28;944;-81
2024/02/19 03:33:15;;;;;;;;;;;;;;;20.33;27.92;98968.72;4951233;28;1244;-81
2024/02/19 03:35:40;;;;;;;;;;;;;;;20.93;27.30;98964.66;4952414;28;863;-81
2024/02/19 03:38:06;;;;;;;;;;;;;;;21.08;27.02;98957.66;4951859;28;998;-82
2024/02/19 03:40:32;;;;;;;;;;;;;;;21.24;26.60;98953.47;4967805;28;974;-81
2024/02/19 03:42:57;;;;;;;;;;;;;;;21.11;27.17;98961.69;4968422;29;1983;-82
2024/02/19 03:45:23;;;;;;;;;;;;;;;21.25;26.76;98961.56;4968224;28;1038;-81
2024/02/19 03:47:49;;;;;;;;;;;;;;;21.06;26.93;98964.97;4937025;29;1015;-82
2024/02/19 03:50:14;;;;;;;;;;;;;;;21.25;26.94;98955.88;4948311;29;1013;-81
2024/02/19 03:52:40;;;;;;;;;;;;;;;21.16;26.77;98949.91;4948900;29;992;-82
2024/02/19 03:55:06;;;;;;;;;;;;;;;20.80;27.19;98963.56;4932711;29;1068;-82
2024/02/19 03:57:31;;;;;;;;;;;;;;;20.90;27.02;98957.03;4950712;29;887;-81
2024/02/19 03:59:57;;;;;;;;;;;;;;;20.98;27.08;98952.09;4958674;28;933;-81
2024/02/19 04:02:23;;;;;;;;;;;;;;;21.13;26.86;98959.22;4971231;28;943;-81
2024/02/19 04:04:48;;;;;;;;;;;;;;;21.12;27.16;98951.97;4969543;28;1976;-82
2024/02/19 04:07:14;;;;;;;;;;;;;;;21.11;27.19;98961.69;4970701;28;945;-82
2024/02/19 04:09:39;;;;;;;;;;;;;;;21.20;26.99;98964.84;4952699;29;761;-81
2024/02/19 04:12:05;;;;;;;;;;;;;;;21.15;26.88;98961.66;4969913;28;759;-81
2024/02/19 04:14:31;;;;;;;;;;;;;;;21.13;26.93;98961.25;4987347;28;994;-81
2024/02/19 04:16:57;;;;;;;;;;;;;;;21.25;27.00;98960.75;4988692;28;965;-81
2024/02/19 04:19:23;;;;;;;;;;;;;;;21.14;26.57;98960.84;4970327;28;901;-81
2024/02/19 04:21:49;;;;;;;;;;;;;;;20.80;26.99;98964.38;4972351;28;862;-81
2024/02/19 04:24:14;;;;;;;;;;;;;;;20.98;26.91;98961.38;4986871;28;1948;-81
2024/02/19 04:26:40;;;;;;;;;;;;;;;20.99;27.23;98962.22;4956916;28;1113;-81
2024/02/19 04:29:05;;;;;;;;;;;;;;;21.05;26.89;98964.16;4986997;28;1110;-81
2024/02/19 04:31:31;;;;;;;;;;;;;;;21.14;26.90;98971.34;4972186;28;809;-82
2024/02/19 04:33:57;;;;;;;;;;;;;;;20.85;27.42;98976.47;4951678;29;1130;-81
2024/02/19 04:36:22;;;;;;;;;;;;;;;21.08;27.00;98968.16;4969530;29;963;-81
2024/02/19 04:38:48;;;;;;;;;;;;;;;21.10;26.99;98968.56;4929945;29;879;-81
2024/02/19 04:41:14;;;;;;;;;;;;;;;20.99;26.89;98965.84;4931672;29;1008;-81
2024/02/19 04:43:39;;;;;;;;;;;;;;;20.60;27.46;98966.16;4913719;29;1879;-81
2024/02/19 04:46:05;;;;;;;;;;;;;;;20.92;26.98;98976.41;4932643;29;1477;-81
2024/02/19 04:48:34;;;;;;;;;;;;;;;20.92;27.17;98967.91;4931647;29;945;-81
2024/02/19 04:50:59;;;;;;;;;;;;;;;20.96;27.17;98965.88;4950427;29;950;-81
2024/02/19 04:53:25;;;;;;;;;;;;;;;21.07;27.30;98973.03;4949695;29;957;-81
2024/02/19 04:55:50;;;;;;;;;;;;;;;21.22;26.75;98970.88;4953088;29;933;-81
2024/02/19 04:58:16;;;;;;;;;;;;;;;21.18;27.03;98978.59;4935942;29;994;-81
2024/02/19 05:00:43;;;;;;;;;;;;;;;21.18;26.93;98972.94;4937801;29;1235;-81
2024/02/19 05:03:08;;;;;;;;;;;;;;;21.32;26.78;98978.47;4952180;29;1942;-81
2024/02/19 05:05:35;;;;;;;;;;;;;;;21.04;26.74;98973.88;4936868;29;918;-81
2024/02/19 05:08:01;;;;;;;;;;;;;;;20.48;27.45;98981.59;4951056;29;1041;-81
2024/02/19 05:10:26;;;;;;;;;;;;;;;21.07;27.23;98987.16;4970010;28;863;-81
2024/02/19 05:12:52;;;;;;;;;;;;;;;21.12;26.88;98985.13;4989595;28;894;-81
2024/02/19 05:15:18;;;;;;;;;;;;;;;20.99;27.12;98982.00;4989306;28;878;-81
2024/02/19 05:17:43;;;;;;;;;;;;;;;21.04;27.18;98982.38;4957818;28;958;-81
2024/02/19 05:20:10;;;;;;;;;;;;;;;21.24;27.05;98987.41;4973018;28;871;-80
2024/02/19 05:22:36;;;;;;;;;;;;;;;21.23;26.67;98991.47;4974492;28;812;-81
2024/02/19 05:25:02;;;;;;;;;;;;;;;21.23;26.71;98977.34;4953553;29;1895;-80
2024/02/19 05:27:27;;;;;;;;;;;;;;;20.45;27.84;98981.56;4939026;29;1172;-81
2024/02/19 05:29:53;;;;;;;;;;;;;;;20.73;27.76;98972.94;4969394;29;1164;-81
2024/02/19 05:32:18;;;;;;;;;;;;;;;21.07;27.06;98977.88;4954754;29;1101;-81
2024/02/19 05:34:44;;;;;;;;;;;;;;;21.24;26.80;98976.09;4952738;29;982;-81
2024/02/19 05:37:10;;;;;;;;;;;;;;;21.16;26.87;98978.22;4971530;29;787;-81
2024/02/19 05:39:35;;;;;;;;;;;;;;;21.20;26.76;98979.00;4983688;28;1123;-81
2024/02/19 05:42:01;;;;;;;;;;;;;;;21.23;26.70;98986.63;4990157;28;815;-81
2024/02/19 05:44:26;;;;;;;;;;;;;;;21.17;26.78;98988.31;4956233;28;1894;-82
2024/02/19 05:46:52;;;;;;;;;;;;;;;21.02;27.10;98992.47;4951616;29;907;-80
2024/02/19 05:49:18;;;;;;;;;;;;;;;20.63;27.47;98985.13;4935059;29;926;-81
2024/02/19 05:51:44;;;;;;;;;;;;;;;20.90;26.81;98990.16;4935549;29;854;-81
2024/02/19 05:54:10;;;;;;;;;;;;;;;20.79;27.44;98996.72;4949704;29;848;-81
2024/02/19 05:56:35;;;;;;;;;;;;;;;21.14;26.87;98994.81;4935307;29;890;-81
2024/02/19 05:59:01;;;;;;;;;;;;;;;21.07;26.87;98989.19;4949643;29;768;-81
2024/02/19 06:01:27;;;;;;;;;;;;;;;21.23;26.96;98994.31;4964523;28;929;-81
2024/02/19 06:03:53;;;;;;;;;;;;;;;21.03;27.09;98988.41;4973023;28;1906;-81
2024/02/19 06:06:19;;;;;;;;;;;;;;;21.02;27.17;98998.13;4990738;28;1017;-82
2024/02/19 06:08:44;;;;;;;;;;;;;;;21.06;26.97;98988.41;4956601;28;1241;-81
2024/02/19 06:11:10;;;;;;;;;;;;;;;21.17;26.59;98993.16;4990266;28;719;-81
2024/02/19 06:13:36;;;;;;;;;;;;;;;21.21;26.97;98994.75;4972132;28;900;-81
2024/02/19 06:16:01;;;;;;;;;;;;;;;21.14;26.83;98997.66;4974380;28;1065;-81
2024/02/19 06:18:27;;;;;;;;;;;;;;;20.62;27.40;99003.28;4997755;28;899;-81
2024/02/19 06:20:53;;;;;;;;;;;;;;;20.97;27.41;98998.59;5009655;28;831;-81
2024/02/19 06:23:18;;;;;;;;;;;;;;;21.04;26.98;99004.19;4991015;28;1979;-81
2024/02/19 06:25:44;;;;;;;;;;;;;;;20.96;26.91;98996.97;5008934;28;870;-81
2024/02/19 06:28:09;;;;;;;;;;;;;;;21.05;26.98;98997.31;5007511;28;1267;-81
2024/02/19 06:30:35;;;;;;;;;;;;;;;20.95;27.04;98992.56;4992980;28;1129;-82
2024/02/19 06:33:01;;;;;;;;;;;;;;;21.11;26.87;99004.13;5007917;28;1001;-82
2024/02/19 06:35:27;;;;;;;;;;;;;;;21.39;26.39;98999.44;4992758;28;811;-81
2024/02/19 06:37:53;;;;;;;;;;;;;;;20.65;27.35;99007.31;4992004;28;810;-81
2024/02/19 06:40:18;;;;;;;;;;;;;;;20.52;27.36;99004.16;4992119;28;906;-81
2024/02/19 06:42:44;;;;;;;;;;;;;;;20.54;27.64;99008.19;4992550;28;1232;-81
2024/02/19 06:45:10;;;;;;;;;;;;;;;21.04;26.81;98996.53;4991495;28;1991;-81
2024/02/19 06:47:36;;;;;;;;;;;;;;;20.99;26.95;98993.34;4976824;28;1259;-81
2024/02/19 06:50:02;;;;;;;;;;;;;;;21.00;26.93;98990.06;5003607;28;910;-81
2024/02/19 06:52:28;;;;;;;;;;;;;;;21.36;26.53;98998.28;5009852;28;783;-81
2024/02/19 06:54:53;;;;;;;;;;;;;;;21.12;26.66;98997.25;5009109;28;782;-81
2024/02/19 06:57:19;;;;;;;;;;;;;;;21.15;26.93;99007.75;5009761;28;958;-81
2024/02/19 06:59:45;;;;;;;;;;;;;;;21.13;26.84;98998.03;4992341;28;1436;-81
2024/02/19 07:02:11;;;;;;;;;;;;;;;21.10;26.86;98998.91;4993560;28;1179;-81
2024/02/19 07:04:40;;;;;;;;;;;;;;;20.84;26.97;99011.63;4991907;28;1958;-81
2024/02/19 07:07:09;;;;;;;;;;;;;;;21.06;26.94;99015.91;5008990;28;1254;-81
2024/02/19 07:09:35;;;;;;;;;;;;;;;20.92;27.34;99021.66;5007913;28;871;-81
2024/02/19 07:12:00;;;;;;;;;;;;;;;20.89;27.29;99022.50;5009599;28;791;-81
2024/02/19 07:14:26;;;;;;;;;;;;;;;20.92;27.22;99013.19;5007123;28;1172;-81
2024/02/19 07:16:51;;;;;;;;;;;;;;;21.03;27.10;99011.06;5009166;28;957;-81
2024/02/19 07:19:17;;;;;;;;;;;;;;;21.14;26.84;99008.97;5007419;28;1100;-81
2024/02/19 07:21:43;;;;;;;;;;;;;;;20.98;26.92;99020.00;4992763;28;850;-81
2024/02/19 07:24:08;;;;;;;;;;;;;;;21.21;26.86;99016.59;5007481;28;1891;-81
2024/02/19 07:26:34;;;;;;;;;;;;;;;20.96;27.10;99023.25;5008288;28;998;-81
2024/02/19 07:28:59;;;;;;;;;;;;;;;20.42;27.70;99033.28;4974093;28;1284;-81
2024/02/19 07:31:25;;;;;;;;;;;;;;;20.77;27.34;99027.41;4974730;28;1200;-81
2024/02/19 07:33:51;;;;;;;;;;;;;;;21.01;27.17;99019.97;4989549;28;1159;-81
2024/02/19 07:36:16;;;;;;;;;;;;;;;21.23;26.61;99016.97;5007488;28;1292;-81
2024/02/19 07:38:42;;;;;;;;;;;;;;;21.24;26.83;99015.72;5005878;28;783;-81
2024/02/19 07:41:16;;;;;;;;;;;;;;;20.99;26.98;99016.78;5008302;28;1417;-81
2024/02/19 07:43:44;;;;;;;;;;;;;;;21.08;26.88;99013.44;4990026;28;1891;-81
2024/02/19 07:46:10;;;;;;;;;;;;;;;21.27;26.63;99015.72;4992544;28;942;-81
2024/02/19 07:48:36;;;;;;;;;;;;;;;20.57;27.73;99017.06;4973104;28;874;-81
2024/02/19 07:51:01;;;;;;;;;;;;;;;20.14;28.10;99017.25;4991956;28;900;-81
2024/02/19 07:53:27;;;;;;;;;;;;;;;20.93;27.15;99011.94;4989055;28;705;-81
2024/02/19 07:56:03;;;;;;;;;;;;;;;21.06;26.89;99004.56;5007749;28;829;-81
2024/02/19 07:58:28;;;;;;;;;;;;;;;21.07;27.06;99009.00;5003947;28;899;-81
2024/02/19 08:00:54;;;;;;;;;;;;;;;21.13;26.96;99020.69;4991406;28;855;-80
2024/02/19 08:03:19;;;;;;;;;;;;;;;21.13;26.65;99010.16;5005022;28;1958;-81
2024/02/19 08:05:45;;;;;;;;;;;;;;;21.04;27.02;99007.03;4991692;28;751;-81
2024/02/19 08:08:11;;;;;;;;;;;;;;;21.27;26.54;99010.03;5005895;28;718;-81
2024/02/19 08:10:36;;;;;;;;;;;;;;;20.71;27.24;99006.47;4990884;28;1190;-81
2024/02/19 08:13:03;;;;;;;;;;;;;;;20.10;28.28;99010.81;4989494;28;1077;-81
2024/02/19 08:15:29;;;;;;;;;;;;;;;20.74;27.36;98999.19;4991430;28;789;-81
2024/02/19 08:17:54;;;;;;;;;;;;;;;21.04;27.02;99004.19;4990240;28;1142;-81
2024/02/19 08:20:20;;;;;;;;;;;;;;;21.16;26.70;98997.22;5006662;28;920;-81
2024/02/19 08:22:47;;;;;;;;;;;;;;;21.16;26.59;98992.34;4990233;28;914;-81
2024/02/19 08:25:12;;;;;;;;;;;;;;;21.36;26.43;98986.94;4990086;28;1922;-81
2024/02/19 08:27:39;;;;;;;;;;;;;;;21.11;26.71;98978.66;4993450;28;1195;-81
2024/02/19 08:30:05;;;;;;;;;;;;;;;21.07;26.82;98981.50;5009838;28;767;-81
2024/02/19 08:32:31;;;;;;;;;;;;;;;21.25;26.57;98978.53;4990427;28;891;-80
2024/02/19 08:34:56;;;;;;;;;;;;;;;20.97;26.90;98978.78;5010839;28;830;-81
2024/02/19 08:37:22;;;;;;;;;;;;;;;20.51;27.59;98965.78;5010688;28;1073;-80
2024/02/19 08:39:48;;;;;;;;;;;;;;;20.03;28.26;98980.59;5026725;28;830;-81
2024/02/19 08:42:13;;;;;;;;;;;;;;;20.96;26.91;98971.53;5012174;28;818;-81
2024/02/19 08:44:39;;;;;;;;;;;;;;;21.26;26.54;98968.00;5010125;28;1975;-81
2024/02/19 08:47:07;;;;;;;;;;;;;;;21.21;26.76;98972.09;5012338;28;886;-81
2024/02/19 08:49:33;;;;;;;;;;;;;;;21.14;26.95;98972.19;4993556;28;944;-81
2024/02/19 08:51:59;;;;;;;;;;;;;;;21.15;26.74;98973.78;5011784;28;847;-80
2024/02/19 08:54:24;;;;;;;;;;;;;;;21.22;26.70;98964.41;5009827;28;871;-81
2024/02/19 08:56:50;;;;;;;;;;;;;;;20.64;27.60;98966.94;5011011;28;1054;-80
2024/02/19 08:59:16;;;;;;;;;;;;;;;20.18;27.81;98979.31;4993684;28;1184;-81
2024/02/19 09:01:41;;;;;;;;;;;;;;;20.90;27.19;98976.03;4994991;28;850;-81
2024/02/19 09:04:08;;;;;;;;;;;;;;;21.00;27.03;98977.97;5009172;28;1883;-81
2024/02/19 09:06:33;;;;;;;;;;;;;;;21.21;26.79;98976.97;5011150;28;791;-81
2024/02/19 09:09:00;;;;;;;;;;;;;;;21.10;26.95;98971.41;5009394;28;807;-81
2024/02/19 09:11:25;;;;;;;;;;;;;;;20.98;27.07;98974.72;4995928;28;807;-81
2024/02/19 09:13:51;;;;;;;;;;;;;;;20.93;27.33;98972.34;5009959;28;1195;-81
2024/02/19 09:16:17;;;;;;;;;;;;;;;21.14;26.67;98982.66;5011108;28;950;-81
2024/02/19 09:18:43;;;;;;;;;;;;;;;20.79;27.23;98979.75;5010344;28;786;-81
2024/02/19 09:21:09;;;;;;;;;;;;;;;20.83;27.25;98973.22;4993930;28;967;-81
2024/02/19 09:23:35;;;;;;;;;;;;;;;20.45;27.62;98975.91;5007745;28;1985;-82
2024/02/19 09:26:01;;;;;;;;;;;;;;;21.18;26.88;98967.25;4994223;28;1148;-81
2024/02/19 09:28:26;;;;;;;;;;;;;;;21.19;26.88;98973.72;4991415;28;1058;-81
2024/02/19 09:30:52;;;;;;;;;;;;;;;21.13;27.11;98969.75;4994492;28;887;-81
2024/02/19 09:33:17;;;;;;;;;;;;;;;21.10;27.01;98977.06;4991512;28;980;-81
2024/02/19 09:35:43;;;;;;;;;;;;;;;21.21;26.92;98972.09;5009999;28;823;-80
2024/02/19 09:38:09;;;;;;;;;;;;;;;21.36;26.58;98963.50;5007453;28;819;-81
2024/02/19 09:40:36;;;;;;;;;;;;;;;21.32;26.66;98967.16;4993779;28;863;-80
2024/02/19 09:43:01;;;;;;;;;;;;;;;20.74;27.18;98956.75;5008870;28;909;-81
2024/02/19 09:45:27;;;;;;;;;;;;;;;20.60;27.76;98956.84;4992435;28;1906;-81
2024/02/19 09:47:54;;;;;;;;;;;;;;;21.16;26.87;98952.75;4991974;28;889;-81
2024/02/19 09:50:20;;;;;;;;;;;;;;;21.02;27.00;98952.88;4969406;29;942;-80
2024/02/19 09:52:46;;;;;;;;;;;;;;;21.05;26.84;98946.38;4968726;28;887;-80
2024/02/19 09:55:12;;;;;;;;;;;;;;;21.23;27.03;98943.38;4988218;28;939;-81
2024/02/19 09:57:37;;;;;;;;;;;;;;;21.23;26.68;98941.34;4973744;28;891;-81
2024/02/19 10:00:04;;;;;;;;;;;;;;;21.24;26.81;98936.47;4972477;28;875;-81
2024/02/19 10:02:31;;;;;;;;;;;;;;;20.85;27.31;98932.00;4954351;29;959;-81
2024/02/19 10:04:59;;;;;;;;;;;;;;;20.79;27.10;98928.03;4910959;29;1919;-81
2024/02/19 10:07:24;;;;;;;;;;;;;;;20.94;27.22;98934.38;4913633;29;973;-81
2024/02/19 10:09:50;;;;;;;;;;;;;;;21.00;26.97;98933.50;4876494;29;886;-79
2024/02/19 10:12:16;;;;;;;;;;;;;;;21.11;26.75;98927.72;4878781;29;1012;-80
2024/02/19 10:14:42;;;;;;;;;;;;;;;21.22;26.89;98928.41;4876783;29;945;-81
2024/02/19 10:17:10;;;;;;;;;;;;;;;21.14;27.04;98932.56;4878823;29;1169;-82
2024/02/19 10:19:37;;;;;;;;;;;;;;;21.11;26.87;98922.06;4877592;29;975;-81
2024/02/19 10:22:03;;;;;;;;;;;;;;;21.25;26.84;98919.09;4879377;29;978;-81
2024/02/19 10:24:29;;;;;;;;;;;;;;;20.70;27.44;98908.69;4893010;29;1883;-80
2024/02/19 10:26:55;;;;;;;;;;;;;;;20.50;27.35;98910.47;4885017;29;805;-81
2024/02/19 10:29:21;;;;;;;;;;;;;;;20.89;27.14;98907.31;4929896;29;1340;-81
2024/02/19 10:31:47;;;;;;;;;;;;;;;20.65;27.77;98906.31;4931865;29;1123;-81
2024/02/19 10:34:14;;;;;;;;;;;;;;;20.87;27.35;98898.44;4930860;29;775;-81
2024/02/19 10:36:40;;;;;;;;;;;;;;;20.97;27.38;98899.56;4885593;29;982;-81
2024/02/19 10:39:06;;;;;;;;;;;;;;;21.17;26.92;98903.41;4911031;29;890;-82
2024/02/19 10:41:34;;;;;;;;;;;;;;;20.79;27.14;98899.75;4965128;28;884;-81
2024/02/19 10:43:59;;;;;;;;;;;;;;;20.53;27.50;98893.50;4975788;28;1971;-81
2024/02/19 10:46:25;;;;;;;;;;;;;;;20.77;27.08;98900.13;5009505;28;826;-81
2024/02/19 10:48:54;;;;;;;;;;;;;;;21.25;26.56;98896.44;5007187;28;1477;-81
2024/02/19 10:51:20;;;;;;;;;;;;;;;21.07;27.16;98895.81;4992815;28;1140;-81
2024/02/19 10:53:45;;;;;;;;;;;;;;;21.19;26.78;98892.47;4990650;28;974;-80
2024/02/19 10:56:18;;;;;;;;;;;;;;;21.29;26.59;98883.03;5008781;28;1047;-81
2024/02/19 10:58:51;;;;;;;;;;;;;;;21.08;27.10;98883.28;4989953;28;823;-81
2024/02/19 11:01:17;;;;;;;;;;;;;;;21.23;26.85;98876.22;5007319;28;1148;-81
2024/02/19 11:03:43;;;;;;;;;;;;;;;21.09;26.82;98884.91;5006556;28;1915;-81
2024/02/19 11:06:10;;;;;;;;;;;;;;;20.71;27.21;98875.56;4993023;28;920;-81
2024/02/19 11:08:36;;;;;;;;;;;;;;;20.65;27.41;98872.38;4989686;28;764;-81
2024/02/19 11:11:05;;;;;;;;;;;;;;;21.28;26.60;98875.78;5008702;28;957;-81
2024/02/19 11:13:35;;;;;;;;;;;;;;;21.13;26.80;98874.31;4989767;28;839;-81
2024/02/19 11:16:02;;;;;;;;;;;;;;;20.99;27.17;98874.50;4992451;28;982;-81
2024/02/19 11:18:31;;;;;;;;;;;;;;;21.04;27.11;98874.03;5005504;28;819;-81
2024/02/19 11:21:02;;;;;;;;;;;;;;;21.21;26.83;98867.38;4992466;28;908;-80
2024/02/19 11:23:30;;;;;;;;;;;;;;;20.91;26.94;98867.28;4989793;28;1980;-81
2024/02/19 11:25:56;;;;;;;;;;;;;;;20.79;27.20;98860.94;5008760;28;930;-81
2024/02/19 11:28:21;;;;;;;;;;;;;;;20.41;27.79;98856.41;4989501;28;1184;-81
2024/02/19 11:30:48;;;;;;;;;;;;;;;20.94;27.26;98852.31;4968881;28;879;-81
2024/02/19 11:33:13;;;;;;;;;;;;;;;20.99;27.18;98860.34;4935233;29;828;-80
2024/02/19 11:35:42;;;;;;;;;;;;;;;21.13;27.13;98850.88;4968769;29;962;-81
2024/02/19 11:38:07;;;;;;;;;;;;;;;21.23;26.77;98838.63;4967022;29;1422;-81
2024/02/19 11:40:33;;;;;;;;;;;;;;;21.03;27.30;98846.94;4969186;29;820;-81
2024/02/19 11:42:59;;;;;;;;;;;;;;;20.98;27.01;98844.56;4967407;29;835;-81
2024/02/19 11:45:25;;;;;;;;;;;;;;;21.06;27.01;98834.78;4967995;29;1902;-80
2024/02/19 11:47:51;;;;;;;;;;;;;;;21.24;26.69;98840.25;4936716;29;1223;-81
2024/02/19 11:50:21;;;;;;;;;;;;;;;21.09;26.89;98833.97;4968156;29;875;-81
2024/02/19 11:52:47;;;;;;;;;;;;;;;20.43;27.74;98820.06;4951762;29;1104;-81
2024/02/19 11:55:19;;;;;;;;;;;;;;;21.06;27.25;98823.47;4951391;29;929;-81
2024/02/19 11:57:45;;;;;;;;;;;;;;;20.98;27.42;98817.09;4952725;29;799;-81
2024/02/19 12:00:13;;;;;;;;;;;;;;;21.01;27.12;98815.47;4967428;29;768;-81
2024/02/19 12:02:48;;;;;;;;;;;;;;;21.19;26.72;98823.72;4992364;28;1251;-80
2024/02/19 12:05:16;;;;;;;;;;;;;;;21.31;26.55;98817.56;4994741;28;1875;-81
2024/02/19 12:07:43;;;;;;;;;;;;;;;21.16;26.77;98822.56;5012327;28;795;-81
2024/02/19 12:10:09;;;;;;;;;;;;;;;20.92;27.02;98818.78;5011134;28;1246;-81
2024/02/19 12:12:35;;;;;;;;;;;;;;;20.45;27.70;98814.78;5013592;28;779;-81
2024/02/19 12:15:01;;;;;;;;;;;;;;;20.97;27.01;98815.47;5010835;28;933;-81
2024/02/19 12:17:26;;;;;;;;;;;;;;;20.97;27.07;98815.47;5013429;28;1090;-81
2024/02/19 12:19:53;;;;;;;;;;;;;;;20.93;27.06;98813.91;4993839;28;1168;-81
2024/02/19 12:22:18;;;;;;;;;;;;;;;21.02;27.06;98811.41;5012002;28;720;-81
2024/02/19 12:24:44;;;;;;;;;;;;;;;21.07;27.18;98808.09;5011936;28;1963;-82
2024/02/19 12:27:09;;;;;;;;;;;;;;;21.04;27.02;98808.97;4996610;28;1131;-81
2024/02/19 12:29:35;;;;;;;;;;;;;;;21.04;26.91;98809.75;5010457;28;1067;-81
2024/02/19 12:32:01;;;;;;;;;;;;;;;20.61;27.45;98803.75;5012551;28;767;-81
2024/02/19 12:34:26;;;;;;;;;;;;;;;20.11;28.19;98809.81;4977976;28;1103;-81
2024/02/19 12:36:53;;;;;;;;;;;;;;;20.33;28.09;98806.81;5011037;28;929;-81
2024/02/19 12:39:18;;;;;;;;;;;;;;;21.07;26.89;98805.28;5011644;28;946;-81
2024/02/19 12:41:46;;;;;;;;;;;;;;;21.10;26.95;98810.09;5012221;28;821;-80
2024/02/19 12:44:12;;;;;;;;;;;;;;;21.07;26.87;98808.09;4994218;28;1883;-82
2024/02/19 12:46:38;;;;;;;;;;;;;;;21.12;26.78;98804.81;5011261;28;783;-81
2024/02/19 12:49:06;;;;;;;;;;;;;;;21.11;26.79;98811.69;5011637;28;842;-81
2024/02/19 12:51:33;;;;;;;;;;;;;;;21.19;26.85;98804.75;5011938;28;930;-81
2024/02/19 12:53:58;;;;;;;;;;;;;;;21.02;26.82;98800.88;4993077;28;878;-81
2024/02/19 12:56:24;;;;;;;;;;;;;;;20.41;27.53;98799.88;4978237;28;918;-81